Etusivu
METAR-TAF:

METAR-TAF

Lentoasemat :

Waco, Texas, Yhdysvallat

Leveyspiiri: 31-38-16N, Pituuspiiri: 097-04-27W, korkeus merenpinnasta: 143 m

Tämänhetkinen sää

Tämä raportti tehtiin 39 minuuttia sitten, kello 14.55 UTC
Tuuli 6 kn idästä/kaakosta
Lämpötila 26°C
Kosteus 79%
Ilmanpaine 1016 hPa
Näkyvyys: 8.0 km
Hajanaisia pilviä 800 ft:n korkeudessa
usvaa,

METAR: KCNW 121455Z 12006KT 5SM HZ SCT008 26/22 A3000

Aika: 09:34 (15:34 UTC)


TAF: puuttuu

Säähavainnot ja -ennusteet yli 4000 lentoasemalta (METAR- ja TAF-raportit).

Käytössä olevat sääasemat on merkitty karttaan keltaisilla ja punaisilla pisteillä.

Aseta hiiri pisteen päälle nähdäksesi sääaseman nimen.

Klikkaa sitten nähdäksesi säähavainnot ja -ennusteet.

Kartan vaihtaminen: klikkaa mustalla rastilla varustettuja vihreitä pisteitä, niin voit zoomata sisään; viivalla varustettua vihreää pistettä, niin voit zoomata ulos tai vihreitä nuolia, niin pääset viereisille kartoille.


METAR-TAF: